• Join FlightAware (Why Join?)
  • Login
  • US Flag 
12:52PM EDT


 

Airport Tracker/Info


-or-


 

Live Flight TrackerFlight Track Log ✈ SKW5500 ✈ 19-Apr-2013 ✈ KASE - KDEN

Flight Track Log - Related Links

Times and Time Zones

All times are in EDT time to prevent confusion due to time zone crossing. See the SKW5500 flight status page for this flight to view local times or setup timezone preferences in your user account.

Time Position Orientation Groundspeed Altitude Reporting Facility
EDT Latitude Longitude Course Direction KTS MPH feet Rate Location/Type
06:29PM 39.2756 -106.9494 288° West 215 247 12,000  Level Denver Center
06:30PM 39.4089 -106.7994 101° East  Level FlightAware Approximate
06:30PM 39.3239 -106.9931 325° Northwest 248 285 14,200  Level Denver Center
06:31PM 39.3902 -106.6777 101° East  Level FlightAware Approximate
06:31PM 39.3503 -106.9069 68° East 284 327 16,500  Level Denver Center
06:32PM 39.3681 -106.5570 104° East  Level FlightAware Approximate
06:32PM 39.3522 -106.7942 89° East 317 365 17,700  Level Denver Center
06:33PM 39.3371 -106.4408 123° Southeast  Level FlightAware Approximate
06:33PM 39.3522 -106.6686 90° East 344 396 19,900  Level Denver Center
06:34PM 39.3517 -106.5106 90° East 364 419 22,300 2,220 Climbing Denver Center
06:35PM 39.3575 -106.3531 87° East 390 449 24,500 1,260 Climbing Denver Center
06:36PM 39.3636 -106.2119 87° East 412 474 25,000 60 Climbing Denver Center
06:37PM 39.3717 -106.0428 86° East 437 503 24,700 -1,080 Descending Denver Center
06:38PM 39.3786 -105.8836 87° East 438 504 22,800 -1,800 Descending Denver Center
06:39PM 39.3833 -105.7314 88° East 425 489 21,000 -1,620 Descending Denver Center
06:40PM 39.3906 -105.5889 86° East 399 459 19,500 -1,500 Descending Denver Center
06:41PM 39.3967 -105.4464 87° East 367 422 18,000 -1,500 Descending Denver Center
06:42PM 39.4022 -105.3269 87° East 337 388 16,400 -1,560 Descending Denver Center
06:43PM 39.4078 -105.2117 86° East 324 373 14,800 -1,500 Descending Denver Center
06:44PM 39.4125 -105.0919 87° East 311 358 13,300 -900 Descending Denver Center
06:45PM 39.4178 -104.9867 86° East 298 343 13,000 -420 Descending Denver Center
06:46PM 39.4361 -104.8708 78° East 323 372 12,500 -780 Descending Denver Center
06:47PM 39.5061 -104.8103 34° Northeast 290 334 11,500 -1,080 Descending Denver Center
06:48PM 39.5822 -104.7647 25° Northeast 275 316 10,300 -1,320 Descending Denver Center
06:49PM 39.6497 -104.7231 25° Northeast 271 312 8,800 -1,500 Descending Denver Center